Current Weather Conditions: station 46145

sailwx.info

Wind from 110 at 13 knots gusting 15

Wave height 0.8 meters (2 feet), 17 second period

Air temperature 1.5° C
Water temperature 5.5° C

Last reported at 2018-Feb-19 19:00 UTC.
Time now 2018-Feb-19 20:23 UTC

Location: N 54°24' W 132°24'.
View on Google Maps.

See reports from other nearby stations

  
Tides and Currents Weather Stations Pressure Air Temp Water Temp Dewpoint Dewpoint Depression Visibility Wind Speed Wind Dir Waves Ship Positions
date/time (UTC)wind fromknots sea level pressurealtimeterstation pressurevisibilityair tempwater tempwave heightnotes
2018-Feb-19 19:00 110 13 gusting 15 1.5 5.5 0.8
2018-Feb-19 18:00 120 7 gusting 9 1.4 5.5 0.8
2018-Feb-19 17:00 140 5 gusting 7 2.2 5.5 0.8
2018-Feb-19 16:00 160 7 gusting 9 2.6 5.6 0.8
2018-Feb-19 15:00 160 7 gusting 9 2.8 5.6 0.8
2018-Feb-19 14:00 140 3 gusting 5 2.7 5.5 0.9
2018-Feb-19 13:00 160 1 gusting 3 2.4 5.5 1.0
2018-Feb-19 12:00 080 1 gusting 3 2.1 5.5 1.1
2018-Feb-19 11:00 340 1 gusting 3 2.0 5.5 1.1
2018-Feb-19 10:00 350 5 gusting 7 2.1 5.5 1.1
2018-Feb-19 09:00 340 7 gusting 9 1.9 5.6 1.1
2018-Feb-19 08:00 330 9 gusting 11 2.0 5.5 1.3
2018-Feb-19 07:00 330 9 gusting 13 2.0 5.5 1.3
2018-Feb-19 06:00 340 11 gusting 15 2.1 5.5 1.4
2018-Feb-19 05:00 340 11 gusting 15 2.1 5.6 1.5
2018-Feb-19 04:00 350 11 gusting 15 2.3 5.6 1.3
2018-Feb-19 03:00 350 13 gusting 15 2.3 5.6 1.4
2018-Feb-19 02:00 340 13 gusting 17 2.3 5.7 1.5
2018-Feb-19 01:00 330 11 gusting 15 2.4 5.6 1.5
2018-Feb-19 00:00 320 7 gusting 11 1.8 5.7 1.5
2018-Feb-18 23:00 320 9 gusting 13 1.6 5.7 1.6
2018-Feb-18 22:00 330 9 gusting 11 1.1 5.6 1.6
2018-Feb-18 21:00 360 9 gusting 15 0.9 5.6 1.7
2018-Feb-18 20:00 340 9 gusting 11 0.6 5.7 1.7
2018-Feb-18 19:00 020 9 gusting 13 0.6 5.7 1.8
2018-Feb-18 18:00 030 13 gusting 17 0.5 5.6 1.8
2018-Feb-18 17:00 020 13 gusting 17 0.4 5.6 1.9
2018-Feb-18 16:00 010 17 gusting 21 0.3 5.7 1.9
2018-Feb-18 15:00 020 19 gusting 21 0.5 5.6 2.0
2018-Feb-18 14:00 010 17 0.5
2018-Feb-18 13:00 020 19 gusting 23 0.6 5.7 2.5
2018-Feb-18 12:00 010 21 gusting 25 0.7 5.6 2.7
2018-Feb-18 11:00 010 19 gusting 25 0.7 5.6 2.6
2018-Feb-18 10:00 1.0 5.6 2.7
2018-Feb-18 09:00 1.0 5.6 2.7
2018-Feb-18 08:00 010 23 gusting 29 1.0 5.6 2.6
2018-Feb-18 07:00 010 21 gusting 27 1.4 5.6 2.6
2018-Feb-18 06:00 1.5 5.6 2.4
2018-Feb-18 05:00 1.5 5.6 2.1
2018-Feb-18 04:00 010 27 gusting 31 1.5 5.7 2.1
2018-Feb-18 03:00 1.7 5.6 1.9
2018-Feb-18 02:00 010 23 1.7
2018-Feb-18 01:00 010 23 gusting 27 1.8 5.8 2.0
2018-Feb-18 00:00 350 23 gusting 27 1.8 5.8 2.0
2018-Feb-17 23:00 350 21 gusting 27 1.9 5.7 2.2
2018-Feb-17 22:00 1.9 5.8 2.1
2018-Feb-17 21:00 360 23 gusting 29 1.8 5.7 2.3
2018-Feb-17 20:00 010 23 gusting 31 1.5 5.7 2.3